Time;durP1;ratioP1;P1;durP2;ratioP2;P2;SDS_P1;SDS_P2;PMS_P1;PMS_P2;Temp;Humidity;BMP_temperature;BMP_pressure;BME280_temperature;BME280_humidity;BME280_pressure;Samples;Min_cycle;Max_cycle;Signal;HPM_P1;HPM_P2
2022/12/02 00:01:48;;;;;;;;;37.75;26.75;;;;;9.06;55.50;101816.06;5075529;27;46172;-38
2022/12/02 00:04:22;;;;;;;;;43.75;32.75;;;;;9.04;55.67;101803.00;5074719;28;46454;-37
2022/12/02 00:06:48;;;;;;;;;32.25;27.75;;;;;9.04;55.63;101802.13;5077042;27;45346;-37
2022/12/02 00:09:29;;;;;;;;;38.00;30.25;;;;;9.01;55.76;101802.13;5069667;28;45398;-37
2022/12/02 00:11:55;;;;;;;;;36.00;26.00;;;;;8.96;55.91;101796.06;5064176;28;45394;-37
2022/12/02 00:14:23;;;;;;;;;40.50;32.75;;;;;8.95;55.89;101796.94;5066805;28;45569;-39
2022/12/02 00:16:49;;;;;;;;;37.25;29.00;;;;;8.95;56.09;101792.59;5074335;27;45430;-37
2022/12/02 00:19:14;;;;;;;;;38.75;28.25;;;;;8.97;55.95;101790.84;5061614;28;45674;-37
2022/12/02 00:21:40;;;;;;;;;36.25;30.00;;;;;8.98;56.16;101786.47;5072922;28;72478;-37
2022/12/02 00:24:05;;;;;;;;;39.00;32.75;;;;;8.97;56.20;101784.75;5077979;28;70036;-37
2022/12/02 00:26:31;;;;;;;;;31.50;26.75;;;;;8.96;56.04;101783.00;5070567;28;45241;-37
2022/12/02 00:28:56;;;;;;;;;41.25;28.75;;;;;8.97;56.32;101783.00;5054364;27;60720;-37
2022/12/02 00:31:21;;;;;;;;;36.25;30.00;;;;;8.98;56.32;101779.53;5068528;28;54970;-37
2022/12/02 00:33:47;;;;;;;;;35.00;29.50;;;;;9.00;56.31;101783.00;5072469;27;59034;-37
2022/12/02 00:36:12;;;;;;;;;37.00;29.00;;;;;9.01;56.44;101776.91;5053008;28;45459;-37
2022/12/02 00:38:37;;;;;;;;;35.25;28.50;;;;;9.04;56.36;101776.88;5072890;28;64114;-37
2022/12/02 00:41:03;;;;;;;;;40.75;30.50;;;;;9.07;56.32;101770.81;5079367;27;46121;-37
2022/12/02 00:46:45;;;;;;;;;43.00;30.75;;;;;9.04;56.47;101765.59;5070449;27;45558;-37
2022/12/02 00:49:12;;;;;;;;;40.75;32.50;;;;;9.00;56.57;101769.94;5077900;27;45307;-37
2022/12/02 00:51:39;;;;;;;;;49.00;30.25;;;;;8.98;56.63;101755.16;5062458;28;45379;-37
2022/12/02 00:54:04;;;;;;;;;42.50;33.25;;;;;8.93;56.72;101758.66;5075174;27;45291;-37
2022/12/02 00:56:31;;;;;;;;;41.50;33.50;;;;;8.91;56.82;101755.19;5074299;28;64397;-37
2022/12/02 00:58:56;;;;;;;;;38.50;30.50;;;;;8.90;56.85;101750.81;5084465;27;45431;-37
2022/12/02 01:01:22;;;;;;;;;46.50;34.00;;;;;8.90;56.86;101763.03;5072376;27;45484;-37
2022/12/02 01:03:48;;;;;;;;;46.00;35.00;;;;;8.92;56.92;101766.50;5068580;28;45522;-37
2022/12/02 01:06:13;;;;;;;;;39.75;34.50;;;;;8.90;56.78;101755.19;5095514;27;45389;-37
2022/12/02 01:08:39;;;;;;;;;42.50;31.00;;;;;8.87;56.90;101756.09;5066940;27;71732;-38
2022/12/02 01:11:04;;;;;;;;;42.50;32.75;;;;;8.88;56.98;101741.28;5076202;27;65590;-37
2022/12/02 01:13:30;;;;;;;;;39.00;33.25;;;;;8.85;56.80;101744.78;5068398;27;45496;-38
2022/12/02 01:15:55;;;;;;;;;43.25;32.50;;;;;8.86;56.96;101745.63;5073062;28;56041;-37
2022/12/02 01:18:21;;;;;;;;;42.50;31.75;;;;;8.85;57.09;101746.50;5069971;27;45369;-37
2022/12/02 01:20:46;;;;;;;;;36.25;33.00;;;;;8.87;57.09;101743.03;5067894;28;45467;-37
2022/12/02 01:23:11;;;;;;;;;42.50;34.00;;;;;8.88;57.26;101749.97;5075008;27;45576;-37
2022/12/02 01:25:37;;;;;;;;;38.50;33.75;;;;;8.87;56.97;101740.41;5079862;27;45252;-38
2022/12/02 01:28:02;;;;;;;;;50.25;32.50;;;;;8.87;56.99;101743.03;5077351;27;53437;-37
2022/12/02 01:30:28;;;;;;;;;35.50;29.25;;;;;8.85;57.14;101743.88;5077346;27;46933;-37
2022/12/02 01:32:53;;;;;;;;;42.50;31.00;;;;;8.84;57.03;101739.56;5070794;27;45354;-37
2022/12/02 01:35:19;;;;;;;;;42.25;33.00;;;;;8.86;57.23;101748.25;5066559;27;45342;-37
2022/12/02 01:37:45;;;;;;;;;32.50;31.50;;;;;8.82;57.09;101746.50;5070017;28;62222;-37
2022/12/02 01:40:11;;;;;;;;;39.25;32.75;;;;;8.78;57.17;101744.78;5088853;27;45491;-37
2022/12/02 01:42:37;;;;;;;;;47.75;34.75;;;;;8.79;57.26;101746.53;5076750;28;45423;-37
2022/12/02 01:45:03;;;;;;;;;46.25;32.50;;;;;8.79;57.09;101752.63;5077917;28;45427;-38
2022/12/02 01:47:28;;;;;;;;;29.00;29.00;;;;;8.73;57.11;101743.06;5061447;28;45557;-37
2022/12/02 01:49:53;;;;;;;;;50.50;34.75;;;;;8.71;57.39;101747.44;5070970;27;46334;-37
2022/12/02 01:52:19;;;;;;;;;39.25;31.50;;;;;8.70;57.31;101752.66;5056782;28;58803;-37
2022/12/02 01:54:44;;;;;;;;;43.00;31.50;;;;;8.69;57.16;101751.78;5071503;27;55765;-37
2022/12/02 01:57:11;;;;;;;;;40.50;30.75;;;;;8.68;57.32;101752.66;5075682;28;45299;-37
2022/12/02 01:59:38;;;;;;;;;44.25;34.00;;;;;8.69;57.48;101756.13;5051080;28;46334;-35
2022/12/02 02:02:23;;;;;;;;;43.00;33.75;;;;;8.70;57.28;101756.13;5076881;28;45330;-37
2022/12/02 02:04:48;;;;;;;;;31.00;29.50;;;;;8.71;57.21;101756.97;5076221;28;45450;-37
2022/12/02 02:07:13;;;;;;;;;38.75;34.75;;;;;8.73;57.38;101753.50;5090287;27;57808;-37
2022/12/02 02:09:39;;;;;;;;;50.00;35.50;;;;;8.74;57.20;101751.75;5066632;27;71239;-42
2022/12/02 02:12:04;;;;;;;;;49.00;31.75;;;;;8.73;57.14;101761.34;5076694;27;48133;-37
2022/12/02 02:14:29;;;;;;;;;56.75;37.25;;;;;8.74;57.08;101756.97;5076900;28;45455;-37
2022/12/02 02:16:55;;;;;;;;;42.50;32.25;;;;;8.76;57.19;101746.53;5074343;27;45331;-37
2022/12/02 02:19:20;;;;;;;;;50.75;35.00;;;;;8.77;57.30;101741.31;5089978;27;69723;-37
2022/12/02 02:21:49;;;;;;;;;40.00;33.75;;;;;8.80;56.99;101736.09;5072255;27;49534;-37
2022/12/02 02:24:14;;;;;;;;;52.00;37.00;;;;;8.79;56.68;101729.13;5073732;27;45425;-37
2022/12/02 02:26:39;;;;;;;;;41.00;31.50;;;;;8.77;56.63;101730.03;5074474;27;48946;-38
2022/12/02 02:29:05;;;;;;;;;51.25;36.25;;;;;8.75;56.81;101732.63;5089879;27;55029;-37
2022/12/02 02:31:30;;;;;;;;;48.50;34.25;;;;;8.77;56.86;101727.41;5062835;27;68177;-37
2022/12/02 02:33:55;;;;;;;;;44.75;33.50;;;;;8.78;56.98;101727.38;5066200;27;56748;-37
2022/12/02 02:36:21;;;;;;;;;47.00;33.75;;;;;8.80;56.83;101723.06;5069044;27;45499;-37
2022/12/02 02:38:48;;;;;;;;;39.75;33.00;;;;;8.80;56.62;101724.75;5064824;27;52336;-38
2022/12/02 02:41:13;;;;;;;;;52.00;35.25;;;;;8.78;56.83;101723.91;5071844;27;45396;-37
2022/12/02 02:43:39;;;;;;;;;44.00;36.00;;;;;8.76;56.80;101723.91;5086461;27;45918;-37
2022/12/02 02:46:04;;;;;;;;;46.00;36.00;;;;;8.76;56.88;101717.84;5063477;27;45406;-38
2022/12/02 02:48:30;;;;;;;;;39.75;32.75;;;;;8.72;56.90;101712.63;5085482;27;69300;-38
2022/12/02 02:50:56;;;;;;;;;43.50;33.25;;;;;8.71;56.90;101716.13;5072281;27;45563;-37
2022/12/02 02:53:23;;;;;;;;;41.25;32.25;;;;;8.70;56.89;101711.75;5071364;28;52089;-37
2022/12/02 02:55:49;;;;;;;;;47.00;36.75;;;;;8.69;56.75;101714.38;5072172;27;45302;-37
2022/12/02 02:58:14;;;;;;;;;40.00;33.00;;;;;8.69;56.95;101710.03;5074580;27;58171;-37
2022/12/02 03:00:42;;;;;;;;;37.00;28.00;;;;;8.67;56.80;101706.53;5068925;27;45783;-37
2022/12/02 03:03:09;;;;;;;;;40.25;29.75;;;;;8.68;56.84;101705.69;5077412;27;45461;-37
2022/12/02 03:05:34;;;;;;;;;43.00;27.00;;;;;8.68;56.67;101700.47;5060391;28;71433;-37
2022/12/02 03:08:00;;;;;;;;;37.00;30.00;;;;;8.66;57.04;101699.59;5073899;27;45980;-37
2022/12/02 03:10:25;;;;;;;;;37.50;31.25;;;;;8.64;56.99;101692.63;5075252;27;57683;-37
2022/12/02 03:12:52;;;;;;;;;44.00;34.00;;;;;8.64;56.95;101692.63;5089923;27;45472;-38
2022/12/02 03:15:19;;;;;;;;;42.00;33.75;;;;;8.65;56.81;101697.00;5095482;27;45578;-37
2022/12/02 03:17:44;;;;;;;;;48.25;34.50;;;;;8.65;56.69;101692.63;5079923;27;46197;-37
2022/12/02 03:20:10;;;;;;;;;51.00;33.25;;;;;8.66;56.82;101701.34;5067920;27;45479;-37
2022/12/02 03:22:35;;;;;;;;;36.25;30.75;;;;;8.60;56.80;101688.31;5077929;27;45504;-37
2022/12/02 03:25:01;;;;;;;;;46.00;33.00;;;;;8.64;56.83;101696.13;5082487;27;46397;-35
2022/12/02 03:27:27;;;;;;;;;47.75;33.50;;;;;8.67;57.01;101693.50;5070941;27;45432;-37
2022/12/02 03:29:52;;;;;;;;;42.75;30.75;;;;;8.70;56.78;101687.41;5067445;27;67890;-36
2022/12/02 03:32:18;;;;;;;;;42.25;31.50;;;;;8.71;56.71;101686.53;5070362;27;57234;-37
2022/12/02 03:34:43;;;;;;;;;46.25;33.75;;;;;8.72;56.80;101689.13;5075330;27;53800;-36
2022/12/02 03:37:09;;;;;;;;;37.00;26.00;;;;;8.72;56.73;101678.69;5078659;27;46816;-36
2022/12/02 03:39:36;;;;;;;;;41.50;30.50;;;;;8.74;56.66;101682.16;5080650;27;45515;-37
2022/12/02 03:42:01;;;;;;;;;38.25;30.25;;;;;8.73;56.48;101679.59;5079462;28;45405;-36
2022/12/02 03:44:27;;;;;;;;;40.25;32.00;;;;;8.71;56.68;101682.19;5073443;27;45614;-37
2022/12/02 03:46:52;;;;;;;;;40.00;31.50;;;;;8.73;56.50;101674.34;5084755;27;65804;-37
2022/12/02 03:49:18;;;;;;;;;46.50;34.25;;;;;8.73;56.54;101672.59;5068265;28;45209;-37
2022/12/02 03:51:43;;;;;;;;;36.75;30.75;;;;;8.74;56.64;101668.25;5078621;27;45478;-36
2022/12/02 03:54:11;;;;;;;;;37.25;29.25;;;;;8.74;56.67;101663.88;5079427;27;45505;-36
2022/12/02 03:56:37;;;;;;;;;47.75;33.00;;;;;8.78;56.60;101661.28;5075411;27;46231;-36
2022/12/02 03:59:03;;;;;;;;;42.50;32.75;;;;;8.78;56.49;101672.56;5076699;27;46215;-36
2022/12/02 04:01:28;;;;;;;;;39.75;32.00;;;;;8.82;56.57;101669.09;5079541;27;67898;-36
2022/12/02 04:03:53;;;;;;;;;45.75;33.75;;;;;8.85;56.58;101662.97;5075282;27;66389;-36
2022/12/02 04:06:19;;;;;;;;;51.00;35.75;;;;;8.86;56.53;101659.50;5075855;27;47107;-37
2022/12/02 04:08:44;;;;;;;;;48.00;32.75;;;;;8.88;56.23;101657.75;5074566;27;59921;-36
2022/12/02 04:11:10;;;;;;;;;42.75;33.00;;;;;8.84;56.02;101662.13;5078361;28;45401;-37
2022/12/02 04:13:35;;;;;;;;;50.75;33.25;;;;;8.83;56.19;101654.28;5071016;27;74135;-36
2022/12/02 04:16:00;;;;;;;;;45.25;30.00;;;;;8.81;56.34;101648.22;5068173;28;68575;-36
2022/12/02 04:18:25;;;;;;;;;35.75;31.00;;;;;8.80;56.55;101636.03;5064921;27;68638;-36
2022/12/02 04:20:51;;;;;;;;;40.75;29.75;;;;;8.81;56.48;101630.81;5071023;27;45434;-36
2022/12/02 04:23:16;;;;;;;;;39.00;32.50;;;;;8.82;56.32;101637.78;5073245;28;63143;-36
2022/12/02 04:25:41;;;;;;;;;49.25;32.00;;;;;8.80;56.23;101634.31;5063714;27;68345;-36
2022/12/02 04:28:07;;;;;;;;;46.50;32.00;;;;;8.82;56.37;101631.66;5070282;28;64857;-36
2022/12/02 04:30:32;;;;;;;;;47.25;33.25;;;;;8.83;56.34;101634.28;5062704;28;59318;-36
2022/12/02 04:32:57;;;;;;;;;44.25;33.00;;;;;8.81;56.21;101637.78;5071439;27;65335;-36
2022/12/02 04:35:23;;;;;;;;;43.25;33.25;;;;;8.77;56.29;101634.31;5065313;27;72325;-36
2022/12/02 04:37:50;;;;;;;;;44.75;35.75;;;;;8.73;56.57;101641.28;5074808;27;46700;-36
2022/12/02 04:40:16;;;;;;;;;45.00;34.25;;;;;8.74;56.62;101642.16;5074611;27;45391;-36
2022/12/02 04:42:42;;;;;;;;;42.50;33.50;;;;;8.75;56.57;101643.91;5084046;27;45430;-36
2022/12/02 04:45:08;;;;;;;;;50.75;33.75;;;;;8.73;56.19;101628.25;5072680;27;71705;-36
2022/12/02 04:47:33;;;;;;;;;39.50;33.50;;;;;8.76;56.42;101632.56;5082066;27;45602;-36
2022/12/02 04:49:58;;;;;;;;;45.50;31.25;;;;;8.75;56.43;101625.63;5076950;27;67243;-36
2022/12/02 04:52:23;;;;;;;;;42.25;31.25;;;;;8.74;56.51;101627.34;5068480;27;73246;-37
2022/12/02 04:54:49;;;;;;;;;41.00;32.75;;;;;8.74;56.77;101631.72;5075211;28;65484;-36
2022/12/02 04:57:14;;;;;;;;;40.50;35.00;;;;;8.76;56.34;101632.56;5073076;27;71812;-36
2022/12/02 04:59:40;;;;;;;;;48.25;33.00;;;;;8.74;56.52;101624.75;5067623;27;45293;-36
2022/12/02 05:02:06;;;;;;;;;39.25;34.00;;;;;8.73;56.42;101624.78;5069995;27;45392;-36
2022/12/02 05:04:31;;;;;;;;;42.75;33.50;;;;;8.71;56.72;101621.28;5074629;27;60681;-36
2022/12/02 05:06:56;;;;;;;;;39.25;29.50;;;;;8.69;56.62;101618.72;5074335;27;66268;-36
2022/12/02 05:09:22;;;;;;;;;52.00;36.00;;;;;8.70;56.74;101614.34;5090038;27;64539;-36
2022/12/02 05:11:47;;;;;;;;;42.75;33.25;;;;;8.70;56.70;101622.19;5074210;27;60525;-37
2022/12/02 05:14:12;;;;;;;;;50.25;35.50;;;;;8.69;56.52;101616.09;5077029;27;74482;-38
2022/12/02 05:16:37;;;;;;;;;39.00;28.25;;;;;8.67;56.48;101622.19;5078073;27;45434;-37
2022/12/02 05:19:03;;;;;;;;;47.25;32.25;;;;;8.65;56.81;101619.56;5077177;27;61588;-37
2022/12/02 05:21:28;;;;;;;;;47.25;34.75;;;;;8.66;56.74;101613.50;5088594;27;69460;-37
2022/12/02 05:23:53;;;;;;;;;48.50;34.00;;;;;8.67;56.73;101609.13;5068938;27;71888;-37
2022/12/02 05:26:19;;;;;;;;;48.00;33.50;;;;;8.68;56.83;101608.28;5068424;27;72868;-36
2022/12/02 05:28:44;;;;;;;;;44.50;36.00;;;;;8.68;56.79;101611.75;5075705;27;59154;-37
2022/12/02 05:31:09;;;;;;;;;54.50;36.75;;;;;8.69;56.83;101600.44;5062574;28;66162;-37
2022/12/02 05:33:35;;;;;;;;;50.50;37.50;;;;;8.69;56.74;101600.44;5079060;27;46088;-37
2022/12/02 05:36:00;;;;;;;;;45.25;33.75;;;;;8.69;56.54;101596.94;5068805;27;61188;-37
2022/12/02 05:38:25;;;;;;;;;45.75;37.25;;;;;8.71;56.71;101595.19;5074512;27;45502;-37
2022/12/02 05:40:55;;;;;;;;;52.75;36.50;;;;;8.71;56.83;101585.63;5068817;27;45383;-37
2022/12/02 05:43:23;;;;;;;;;50.75;34.00;;;;;8.72;56.72;101584.75;5078016;28;46331;-37
2022/12/02 05:45:49;;;;;;;;;48.25;35.50;;;;;8.73;56.73;101596.06;5068531;28;45464;-37
2022/12/02 05:48:17;;;;;;;;;52.50;37.50;;;;;8.72;56.92;101587.34;5066743;27;45483;-37
2022/12/02 05:50:43;;;;;;;;;43.50;34.50;;;;;8.73;56.68;101591.72;5066930;27;45465;-37
2022/12/02 05:53:22;;;;;;;;;41.00;34.00;;;;;8.73;56.79;101585.63;5073450;28;45511;-36
2022/12/02 05:55:50;;;;;;;;;50.75;36.00;;;;;8.75;56.93;101586.47;5076570;27;45958;-36
2022/12/02 05:58:16;;;;;;;;;34.00;28.00;;;;;8.78;56.86;101586.44;5068115;27;45481;-36
2022/12/02 06:00:41;;;;;;;;;53.25;36.25;;;;;8.77;56.52;101583.88;5075464;27;45506;-37
2022/12/02 06:03:14;;;;;;;;;47.50;35.00;;;;;8.74;56.79;101582.13;5067436;28;57548;-37
2022/12/02 06:05:42;;;;;;;;;42.50;33.00;;;;;8.72;56.77;101587.34;5063868;27;45386;-36
2022/12/02 06:08:22;;;;;;;;;52.25;35.00;;;;;8.72;56.86;101568.22;5074639;27;45455;-37
2022/12/02 06:10:57;;;;;;;;;49.25;36.25;;;;;8.73;56.96;101569.97;5073642;27;45468;-37
2022/12/02 06:13:26;;;;;;;;;54.25;36.00;;;;;8.72;56.97;101571.69;5072469;28;45419;-43
2022/12/02 06:15:52;;;;;;;;;50.75;34.00;;;;;8.75;56.89;101583.88;5074313;27;45480;-37
2022/12/02 06:18:19;;;;;;;;;50.25;35.25;;;;;8.72;57.14;101570.84;5072976;27;45334;-37
2022/12/02 06:20:46;;;;;;;;;46.00;34.25;;;;;8.72;56.93;101576.91;5076601;27;46227;-37
2022/12/02 06:23:17;;;;;;;;;54.75;36.75;;;;;8.70;56.85;101576.06;5070708;27;45469;-37
2022/12/02 06:25:43;;;;;;;;;52.00;36.00;;;;;8.70;56.89;101565.63;5074985;27;45312;-37
2022/12/02 06:28:37;;;;;;;;;50.75;36.50;;;;;8.72;57.07;101563.88;5080460;27;45600;-37
2022/12/02 06:31:38;;;;;;;;;54.50;35.50;;;;;8.76;57.23;101569.94;5084866;27;45292;-37
2022/12/02 06:34:36;;;;;;;;;47.75;33.00;;;;;8.77;57.21;101571.69;5058153;28;45553;-37
2022/12/02 06:37:18;;;;;;;;;51.50;36.25;;;;;8.77;57.09;101568.22;5071925;27;45758;-37
2022/12/02 06:39:46;;;;;;;;;49.00;33.25;;;;;8.76;56.95;101572.53;5078259;27;45371;-36
2022/12/02 06:42:30;;;;;;;;;52.50;37.75;;;;;8.79;57.12;101574.28;5079571;27;45354;-36
2022/12/02 06:45:04;;;;;;;;;42.75;34.00;;;;;8.81;56.96;101569.91;5075616;27;45335;-37
2022/12/02 06:47:32;;;;;;;;;36.25;29.75;;;;;8.79;57.13;101558.63;5051204;28;45985;-37
2022/12/02 06:50:03;;;;;;;;;51.25;38.50;;;;;8.79;57.15;101569.06;5077595;27;45312;-36
2022/12/02 06:52:33;;;;;;;;;54.75;35.25;;;;;8.76;57.12;101556.03;5079178;27;45635;-37
2022/12/02 06:54:59;;;;;;;;;47.50;37.50;;;;;8.74;57.19;101562.09;5072163;28;45564;-37
2022/12/02 06:57:24;;;;;;;;;49.00;35.00;;;;;8.76;57.20;101559.50;5080795;27;58405;-37
2022/12/02 06:59:50;;;;;;;;;55.00;38.75;;;;;8.76;57.19;101562.09;5091034;27;45351;-36
2022/12/02 07:02:27;;;;;;;;;51.75;35.25;;;;;8.74;57.32;101561.25;5083660;27;63478;-37
2022/12/02 07:04:53;;;;;;;;;52.25;36.75;;;;;8.75;57.43;101560.38;5066446;28;46417;-37
2022/12/02 07:07:26;;;;;;;;;51.25;36.00;;;;;8.75;57.16;101565.59;5068230;27;56395;-36
2022/12/02 07:09:57;;;;;;;;;53.25;36.25;;;;;8.71;57.21;101569.09;5074569;28;45340;-36
2022/12/02 07:12:38;;;;;;;;;51.00;37.00;;;;;8.71;57.41;101569.09;5070888;27;45336;-37
2022/12/02 07:15:30;;;;;;;;;49.00;36.25;;;;;8.70;57.46;101562.16;5069939;27;46374;-37
2022/12/02 07:18:17;;;;;;;;;49.50;33.75;;;;;8.71;57.50;101554.31;5071477;27;45298;-36
2022/12/02 07:20:44;;;;;;;;;52.00;39.00;;;;;8.73;57.59;101555.19;5076837;27;45391;-36
2022/12/02 07:23:19;;;;;;;;;47.50;35.25;;;;;8.74;57.58;101569.09;5073840;27;45217;-36
2022/12/02 07:25:55;;;;;;;;;52.25;38.00;;;;;8.76;57.30;101569.06;5074799;27;46366;-36
2022/12/02 07:28:33;;;;;;;;;48.50;36.25;;;;;8.73;57.45;101564.75;5089479;27;45882;-36
2022/12/02 07:31:02;;;;;;;;;53.50;38.00;;;;;8.71;57.67;101558.66;5064199;27;45511;-36
2022/12/02 07:33:29;;;;;;;;;52.75;38.75;;;;;8.71;57.46;101549.09;5075448;28;45564;-36
2022/12/02 07:35:54;;;;;;;;;52.75;35.00;;;;;8.71;57.85;101543.88;5073515;28;45320;-35
2022/12/02 07:38:20;;;;;;;;;49.25;34.00;;;;;8.69;57.51;101545.66;5080452;27;45308;-35
2022/12/02 07:40:45;;;;;;;;;55.50;37.75;;;;;8.70;57.73;101555.19;5090868;27;45383;-35
2022/12/02 07:43:11;;;;;;;;;50.00;38.25;;;;;8.68;57.63;101562.16;5071304;27;45319;-35
2022/12/02 07:45:36;;;;;;;;;45.25;36.00;;;;;8.65;57.93;101561.31;5069996;27;45722;-36
2022/12/02 07:48:02;;;;;;;;;42.75;32.50;;;;;8.59;58.05;101559.63;5071912;28;45493;-35
2022/12/02 07:50:27;;;;;;;;;50.75;38.50;;;;;8.57;58.25;101561.38;5061779;28;45303;-36
2022/12/02 07:52:52;;;;;;;;;55.50;39.25;;;;;8.54;58.19;101564.84;5064392;28;66659;-35
2022/12/02 07:55:18;;;;;;;;;54.00;37.00;;;;;8.54;58.45;101566.59;5061345;28;62661;-35
2022/12/02 07:57:43;;;;;;;;;56.00;38.25;;;;;8.48;58.53;101554.47;5064995;28;52423;-35
2022/12/02 08:00:09;;;;;;;;;51.50;39.00;;;;;8.55;58.46;101556.16;5067338;28;47171;-35
2022/12/02 08:02:35;;;;;;;;;54.50;39.25;;;;;8.57;58.57;101561.38;5071188;27;45380;-36
2022/12/02 08:05:00;;;;;;;;;56.75;39.25;;;;;8.58;58.29;101564.84;5084907;27;45493;-36
2022/12/02 08:07:26;;;;;;;;;57.25;40.00;;;;;8.59;58.39;101569.16;5079010;27;45455;-36
2022/12/02 08:09:51;;;;;;;;;58.50;42.50;;;;;8.60;58.14;101568.28;5066761;28;46563;-37
2022/12/02 08:12:16;;;;;;;;;56.50;40.75;;;;;8.59;58.26;101566.56;5072208;28;65714;-36
2022/12/02 08:14:41;;;;;;;;;58.50;40.00;;;;;8.59;58.22;101557.00;5059706;28;70672;-36
2022/12/02 08:17:07;;;;;;;;;56.25;38.25;;;;;8.59;58.21;101554.41;5074355;27;70312;-36
2022/12/02 08:19:32;;;;;;;;;59.75;39.75;;;;;8.59;58.29;101553.50;5063620;28;60907;-36
2022/12/02 08:21:57;;;;;;;;;55.75;42.25;;;;;8.59;58.24;101556.13;5097346;27;52088;-37
2022/12/02 08:24:23;;;;;;;;;54.25;38.75;;;;;8.57;58.14;101553.53;5078620;27;45505;-37
2022/12/02 08:26:48;;;;;;;;;55.75;41.75;;;;;8.59;58.18;101556.13;5080743;27;69019;-37
2022/12/02 08:29:13;;;;;;;;;54.25;37.25;;;;;8.59;58.13;101566.56;5071151;27;45226;-37
2022/12/02 08:31:39;;;;;;;;;60.25;41.75;;;;;8.57;58.13;101568.31;5086095;27;70870;-37
2022/12/02 08:34:04;;;;;;;;;56.00;39.00;;;;;8.51;58.23;101557.03;5080640;27;68769;-37
2022/12/02 08:36:29;;;;;;;;;58.00;39.50;;;;;8.45;58.25;101558.81;5069876;27;45552;-38
2022/12/02 08:38:55;;;;;;;;;52.00;39.00;;;;;8.41;58.47;101568.38;5074301;27;58991;-37
2022/12/02 08:41:20;;;;;;;;;57.25;37.00;;;;;8.41;58.42;101559.66;5088104;27;61945;-37
2022/12/02 08:43:46;;;;;;;;;56.50;41.50;;;;;8.45;58.41;101561.44;5071590;28;64827;-37
2022/12/02 08:46:12;;;;;;;;;61.50;41.00;;;;;8.47;58.36;101557.91;5077386;28;45490;-37
2022/12/02 08:48:37;;;;;;;;;53.00;39.75;;;;;8.49;58.44;101560.53;5078354;28;45379;-37
2022/12/02 08:51:02;;;;;;;;;56.75;42.75;;;;;8.50;58.35;101563.13;5075887;27;70875;-37
2022/12/02 08:53:28;;;;;;;;;58.25;43.00;;;;;8.50;58.38;101560.53;5074686;28;46252;-37
2022/12/02 08:55:53;;;;;;;;;54.75;42.00;;;;;8.52;58.41;101563.13;5078518;28;61990;-37
2022/12/02 08:58:18;;;;;;;;;48.50;34.25;;;;;8.52;58.19;101563.13;5075158;27;46243;-37
2022/12/02 09:00:44;;;;;;;;;53.25;39.25;;;;;8.53;58.42;101554.41;5066526;27;45444;-37
2022/12/02 09:03:09;;;;;;;;;53.25;40.50;;;;;8.55;58.46;101539.63;5078052;27;45467;-37
2022/12/02 09:05:36;;;;;;;;;57.75;39.75;;;;;8.57;58.40;101540.50;5073617;27;45359;-37
2022/12/02 09:08:02;;;;;;;;;59.25;42.75;;;;;8.60;58.34;101547.44;5080157;27;45378;-37
2022/12/02 09:10:27;;;;;;;;;51.50;39.00;;;;;8.61;58.46;101554.38;5076855;28;45330;-37
2022/12/02 09:12:53;;;;;;;;;56.50;40.00;;;;;8.64;58.34;101547.41;5060837;28;54058;-37
2022/12/02 09:15:21;;;;;;;;;57.25;42.00;;;;;8.65;58.33;101546.50;5061856;28;69497;-37
2022/12/02 09:17:47;;;;;;;;;59.00;40.50;;;;;8.66;58.26;101555.22;5071865;27;45334;-37
2022/12/02 09:20:13;;;;;;;;;55.50;41.75;;;;;8.64;58.24;101560.47;5088575;27;45396;-38
2022/12/02 09:22:38;;;;;;;;;59.25;43.25;;;;;8.64;58.11;101557.84;5068748;28;45469;-37
2022/12/02 09:25:04;;;;;;;;;57.25;44.25;;;;;8.62;58.21;101556.09;5077772;27;45362;-37
2022/12/02 09:27:29;;;;;;;;;64.75;44.75;;;;;8.58;58.11;101550.03;5086631;27;45390;-37
2022/12/02 09:29:55;;;;;;;;;62.00;44.67;;;;;8.54;58.16;101549.19;5072192;28;69772;-36
2022/12/02 09:32:20;;;;;;;;;53.25;39.50;;;;;8.55;58.22;101550.94;5079834;27;45762;-37
2022/12/02 09:34:46;;;;;;;;;54.25;39.00;;;;;8.51;58.24;101546.59;5065796;27;68881;-37
2022/12/02 09:37:11;;;;;;;;;58.50;40.25;;;;;8.54;58.28;101556.16;5081556;27;45272;-37
2022/12/02 09:39:36;;;;;;;;;61.00;43.00;;;;;8.53;58.43;101554.41;5076570;27;67493;-37
2022/12/02 09:42:02;;;;;;;;;64.50;43.75;;;;;8.54;58.46;101546.56;5065880;27;67929;-37
2022/12/02 09:44:27;;;;;;;;;54.50;42.50;;;;;8.55;58.34;101537.88;5063963;27;45198;-38
2022/12/02 09:46:52;;;;;;;;;53.50;39.00;;;;;8.58;58.24;101534.38;5078359;28;54859;-37
2022/12/02 09:49:18;;;;;;;;;65.00;42.25;;;;;8.61;58.32;101530.91;5074789;27;72112;-37
2022/12/02 09:51:43;;;;;;;;;59.75;45.00;;;;;8.60;58.16;101540.44;5078304;28;46073;-37
2022/12/02 09:54:11;;;;;;;;;55.75;41.75;;;;;8.62;58.04;101533.47;5093845;27;48707;-38
2022/12/02 09:56:37;;;;;;;;;64.00;41.25;;;;;8.62;58.22;101530.00;5077767;28;45406;-37
2022/12/02 09:59:08;;;;;;;;;59.50;40.25;;;;;8.63;58.10;101532.63;5074667;27;70322;-37
2022/12/02 10:01:42;;;;;;;;;56.75;41.25;;;;;8.67;57.91;101536.06;5067758;27;46979;-37
2022/12/02 10:04:08;;;;;;;;;55.75;43.00;;;;;8.66;58.10;101532.59;5068777;27;45820;-37
2022/12/02 10:06:33;;;;;;;;;59.75;41.25;;;;;8.68;57.99;101523.03;5077303;27;45238;-37
2022/12/02 10:08:59;;;;;;;;;69.00;45.75;;;;;8.68;58.01;101520.41;5072067;27;71339;-37
2022/12/02 10:11:26;;;;;;;;;56.50;42.25;;;;;8.69;58.22;101522.16;5085240;27;48223;-37
2022/12/02 10:13:52;;;;;;;;;63.50;43.00;;;;;8.72;57.83;101516.03;5075416;27;45803;-37
2022/12/02 10:16:18;;;;;;;;;58.25;44.00;;;;;8.74;58.02;101506.44;5069686;28;45506;-37
2022/12/02 10:18:44;;;;;;;;;55.75;37.25;;;;;8.75;57.59;101510.81;5081258;27;63185;-37
2022/12/02 10:21:10;;;;;;;;;62.25;43.50;;;;;8.74;57.85;101520.34;5069474;27;46193;-37
2022/12/02 10:24:00;;;;;;;;;56.25;41.50;;;;;8.71;57.63;101517.78;5072905;28;72288;-37
2022/12/02 10:26:27;;;;;;;;;59.00;40.00;;;;;8.69;57.57;101510.84;5069548;27;45311;-37
2022/12/02 10:29:04;;;;;;;;;55.75;36.25;;;;;8.68;57.70;101507.38;5070719;28;56799;-37
2022/12/02 10:31:30;;;;;;;;;60.75;42.50;;;;;8.69;57.60;101496.06;5072190;27;45969;-37
2022/12/02 10:33:57;;;;;;;;;56.25;42.25;;;;;8.67;57.63;101502.16;5093718;27;45377;-37
2022/12/02 10:36:40;;;;;;;;;58.25;43.50;;;;;8.65;57.66;101502.16;5078699;27;45359;-37
2022/12/02 10:39:23;;;;;;;;;63.00;43.50;;;;;8.65;57.63;101502.16;5091893;27;45353;-37
2022/12/02 10:42:04;;;;;;;;;60.00;43.50;;;;;8.68;57.77;101501.28;5078220;27;46081;-37
2022/12/02 10:44:37;;;;;;;;;63.25;42.75;;;;;8.65;57.31;101494.34;5066601;27;45326;-38
2022/12/02 10:47:15;;;;;;;;;64.25;44.50;;;;;8.65;57.47;101491.72;5064553;28;45480;-39
2022/12/02 10:49:49;;;;;;;;;59.00;43.50;;;;;8.66;57.74;101490.00;5088574;27;45452;-37
2022/12/02 10:52:15;;;;;;;;;59.25;42.75;;;;;8.67;57.49;101489.09;5071402;28;46286;-37
2022/12/02 10:54:45;;;;;;;;;63.50;43.00;;;;;8.67;57.37;101476.91;5076797;27;45367;-37
2022/12/02 10:57:13;;;;;;;;;56.25;42.50;;;;;8.69;57.64;101469.97;5076882;27;45428;-37
2022/12/02 10:59:39;;;;;;;;;54.00;40.50;;;;;8.69;57.62;101461.25;5069302;28;45326;-37
2022/12/02 11:02:17;;;;;;;;;55.50;40.75;;;;;8.69;57.49;101469.97;5077845;27;73774;-37
2022/12/02 11:04:43;;;;;;;;;48.25;33.00;;;;;8.67;57.39;101463.00;5085896;27;45774;-37
2022/12/02 11:07:15;;;;;;;;;64.75;42.75;;;;;8.67;57.67;101461.25;5069418;28;66691;-37
2022/12/02 11:09:44;;;;;;;;;62.25;47.00;;;;;8.66;57.46;101461.31;5079902;27;45398;-37
2022/12/02 11:12:34;;;;;;;;;58.75;40.50;;;;;8.63;57.75;101456.09;5070237;27;46608;-37
2022/12/02 11:14:59;;;;;;;;;57.75;43.00;;;;;8.63;57.48;101450.88;5074425;28;45771;-37
2022/12/02 11:17:50;;;;;;;;;65.00;45.00;;;;;8.60;57.60;101454.34;5084343;27;45172;-37
2022/12/02 11:20:40;;;;;;;;;57.75;43.75;;;;;8.59;57.60;101449.16;5068295;27;45233;-37
2022/12/02 11:23:18;;;;;;;;;60.50;41.75;;;;;8.59;57.72;101443.94;5081046;27;45389;-37